sensor_id;sensor_type;location;lat;lon;timestamp;temperature;humidity
41644;DHT22;44236;48.098;11.582;2023-06-10T00:00:13;23.30;53.50
41644;DHT22;44236;48.098;11.582;2023-06-10T00:02:41;23.30;53.50
41644;DHT22;44236;48.098;11.582;2023-06-10T00:05:07;23.30;53.50
41644;DHT22;44236;48.098;11.582;2023-06-10T00:07:36;23.30;53.50
41644;DHT22;44236;48.098;11.582;2023-06-10T00:10:05;23.30;53.50
41644;DHT22;44236;48.098;11.582;2023-06-10T00:12:31;23.30;53.50
41644;DHT22;44236;48.098;11.582;2023-06-10T00:15:03;23.30;53.40
41644;DHT22;44236;48.098;11.582;2023-06-10T00:17:28;23.30;53.40
41644;DHT22;44236;48.098;11.582;2023-06-10T00:19:54;23.30;53.40
41644;DHT22;44236;48.098;11.582;2023-06-10T00:22:20;23.30;53.40
41644;DHT22;44236;48.098;11.582;2023-06-10T00:24:47;23.30;53.40
41644;DHT22;44236;48.098;11.582;2023-06-10T00:27:13;23.20;53.40
41644;DHT22;44236;48.098;11.582;2023-06-10T00:29:39;23.20;53.30
41644;DHT22;44236;48.098;11.582;2023-06-10T00:32:05;23.30;53.40
41644;DHT22;44236;48.098;11.582;2023-06-10T00:34:31;23.20;53.30
41644;DHT22;44236;48.098;11.582;2023-06-10T00:36:57;23.20;53.30
41644;DHT22;44236;48.098;11.582;2023-06-10T00:39:23;23.20;53.30
41644;DHT22;44236;48.098;11.582;2023-06-10T00:41:49;23.20;53.30
41644;DHT22;44236;48.098;11.582;2023-06-10T00:44:15;23.20;53.30
41644;DHT22;44236;48.098;11.582;2023-06-10T00:46:41;23.20;53.30
41644;DHT22;44236;48.098;11.582;2023-06-10T00:49:07;23.20;53.30
41644;DHT22;44236;48.098;11.582;2023-06-10T00:51:34;23.20;53.20
41644;DHT22;44236;48.098;11.582;2023-06-10T00:54:00;23.20;53.30
41644;DHT22;44236;48.098;11.582;2023-06-10T00:58:55;23.20;53.20
41644;DHT22;44236;48.098;11.582;2023-06-10T01:01:21;23.20;53.30
41644;DHT22;44236;48.098;11.582;2023-06-10T01:03:46;23.20;53.20
41644;DHT22;44236;48.098;11.582;2023-06-10T01:11:21;23.20;53.20
41644;DHT22;44236;48.098;11.582;2023-06-10T01:13:50;23.20;53.20
41644;DHT22;44236;48.098;11.582;2023-06-10T01:16:21;23.20;53.20
41644;DHT22;44236;48.098;11.582;2023-06-10T01:18:47;23.20;53.20
41644;DHT22;44236;48.098;11.582;2023-06-10T01:21:19;23.20;53.10
41644;DHT22;44236;48.098;11.582;2023-06-10T01:23:46;23.20;53.10
41644;DHT22;44236;48.098;11.582;2023-06-10T01:26:12;23.20;53.20
41644;DHT22;44236;48.098;11.582;2023-06-10T01:28:44;23.20;53.20
41644;DHT22;44236;48.098;11.582;2023-06-10T01:31:20;23.20;53.10
41644;DHT22;44236;48.098;11.582;2023-06-10T01:33:51;23.20;53.20
41644;DHT22;44236;48.098;11.582;2023-06-10T01:36:19;23.10;53.10
41644;DHT22;44236;48.098;11.582;2023-06-10T01:38:47;23.20;53.20
41644;DHT22;44236;48.098;11.582;2023-06-10T01:41:14;23.20;53.20
41644;DHT22;44236;48.098;11.582;2023-06-10T01:43:43;23.10;53.10
41644;DHT22;44236;48.098;11.582;2023-06-10T01:46:09;23.20;53.10
41644;DHT22;44236;48.098;11.582;2023-06-10T01:48:35;23.10;53.00
41644;DHT22;44236;48.098;11.582;2023-06-10T01:51:00;23.10;53.10
41644;DHT22;44236;48.098;11.582;2023-06-10T01:53:26;23.10;53.10
41644;DHT22;44236;48.098;11.582;2023-06-10T01:55:52;23.10;53.10
41644;DHT22;44236;48.098;11.582;2023-06-10T01:58:17;23.10;53.10
41644;DHT22;44236;48.098;11.582;2023-06-10T02:00:43;23.10;53.00
41644;DHT22;44236;48.098;11.582;2023-06-10T02:03:08;23.10;53.10
41644;DHT22;44236;48.098;11.582;2023-06-10T02:05:34;23.10;53.10
41644;DHT22;44236;48.098;11.582;2023-06-10T02:08:00;23.10;53.00
41644;DHT22;44236;48.098;11.582;2023-06-10T02:10:26;23.10;53.00
41644;DHT22;44236;48.098;11.582;2023-06-10T02:12:51;23.10;53.00
41644;DHT22;44236;48.098;11.582;2023-06-10T02:15:17;23.10;53.60
41644;DHT22;44236;48.098;11.582;2023-06-10T02:17:43;23.10;53.00
41644;DHT22;44236;48.098;11.582;2023-06-10T02:20:10;23.10;53.00
41644;DHT22;44236;48.098;11.582;2023-06-10T02:22:39;23.10;53.00
41644;DHT22;44236;48.098;11.582;2023-06-10T02:25:05;23.10;53.00
41644;DHT22;44236;48.098;11.582;2023-06-10T02:27:31;23.10;53.00
41644;DHT22;44236;48.098;11.582;2023-06-10T02:29:57;23.10;53.10
41644;DHT22;44236;48.098;11.582;2023-06-10T02:32:23;23.00;53.00
41644;DHT22;44236;48.098;11.582;2023-06-10T02:34:49;23.00;53.50
41644;DHT22;44236;48.098;11.582;2023-06-10T02:37:15;23.00;53.00
41644;DHT22;44236;48.098;11.582;2023-06-10T02:39:41;23.00;53.00
41644;DHT22;44236;48.098;11.582;2023-06-10T02:42:07;23.00;53.00
41644;DHT22;44236;48.098;11.582;2023-06-10T02:44:33;23.00;53.00
41644;DHT22;44236;48.098;11.582;2023-06-10T02:46:58;23.00;53.00
41644;DHT22;44236;48.098;11.582;2023-06-10T02:49:24;23.00;53.00
41644;DHT22;44236;48.098;11.582;2023-06-10T02:51:50;23.00;53.00
41644;DHT22;44236;48.098;11.582;2023-06-10T02:54:19;23.00;53.00
41644;DHT22;44236;48.098;11.582;2023-06-10T02:56:45;23.00;53.00
41644;DHT22;44236;48.098;11.582;2023-06-10T02:59:11;23.00;53.00
41644;DHT22;44236;48.098;11.582;2023-06-10T03:01:37;23.00;52.90
41644;DHT22;44236;48.098;11.582;2023-06-10T03:04:09;23.00;52.90
41644;DHT22;44236;48.098;11.582;2023-06-10T03:06:34;23.00;53.00
41644;DHT22;44236;48.098;11.582;2023-06-10T03:09:01;23.00;52.90
41644;DHT22;44236;48.098;11.582;2023-06-10T03:11:26;23.00;53.00
41644;DHT22;44236;48.098;11.582;2023-06-10T03:13:52;23.00;52.90
41644;DHT22;44236;48.098;11.582;2023-06-10T03:16:21;23.00;52.90
41644;DHT22;44236;48.098;11.582;2023-06-10T03:18:46;23.00;52.80
41644;DHT22;44236;48.098;11.582;2023-06-10T03:21:12;23.00;52.90
41644;DHT22;44236;48.098;11.582;2023-06-10T03:23:38;23.00;52.80
41644;DHT22;44236;48.098;11.582;2023-06-10T03:26:04;23.00;52.80
41644;DHT22;44236;48.098;11.582;2023-06-10T03:28:33;23.00;52.80
41644;DHT22;44236;48.098;11.582;2023-06-10T03:30:58;22.90;52.90
41644;DHT22;44236;48.098;11.582;2023-06-10T03:33:24;22.90;52.80
41644;DHT22;44236;48.098;11.582;2023-06-10T03:35:50;22.90;52.80
41644;DHT22;44236;48.098;11.582;2023-06-10T03:38:16;22.90;52.80
41644;DHT22;44236;48.098;11.582;2023-06-10T03:40:42;22.90;52.80
41644;DHT22;44236;48.098;11.582;2023-06-10T03:43:07;22.90;52.70
41644;DHT22;44236;48.098;11.582;2023-06-10T03:45:33;22.90;53.30
41644;DHT22;44236;48.098;11.582;2023-06-10T03:47:58;22.90;52.70
41644;DHT22;44236;48.098;11.582;2023-06-10T03:50:24;22.90;52.70
41644;DHT22;44236;48.098;11.582;2023-06-10T03:52:50;22.90;52.70
41644;DHT22;44236;48.098;11.582;2023-06-10T03:55:16;22.90;52.60
41644;DHT22;44236;48.098;11.582;2023-06-10T03:57:42;22.90;52.70
41644;DHT22;44236;48.098;11.582;2023-06-10T04:00:09;22.90;52.70
41644;DHT22;44236;48.098;11.582;2023-06-10T04:02:38;22.90;52.60
41644;DHT22;44236;48.098;11.582;2023-06-10T04:05:11;23.00;52.80
41644;DHT22;44236;48.098;11.582;2023-06-10T04:07:37;23.00;52.40
41644;DHT22;44236;48.098;11.582;2023-06-10T04:10:06;23.00;52.60
41644;DHT22;44236;48.098;11.582;2023-06-10T04:12:32;23.00;52.20
41644;DHT22;44236;48.098;11.582;2023-06-10T04:14:58;23.00;52.10
41644;DHT22;44236;48.098;11.582;2023-06-10T04:17:23;23.00;52.10
41644;DHT22;44236;48.098;11.582;2023-06-10T04:19:49;23.00;52.20
41644;DHT22;44236;48.098;11.582;2023-06-10T04:22:16;23.00;52.20
41644;DHT22;44236;48.098;11.582;2023-06-10T04:24:43;23.00;52.20
41644;DHT22;44236;48.098;11.582;2023-06-10T04:27:09;23.00;52.10
41644;DHT22;44236;48.098;11.582;2023-06-10T04:29:35;23.00;52.10
41644;DHT22;44236;48.098;11.582;2023-06-10T04:32:02;23.00;52.10
41644;DHT22;44236;48.098;11.582;2023-06-10T04:34:28;23.00;52.10
41644;DHT22;44236;48.098;11.582;2023-06-10T04:36:53;23.00;52.10
41644;DHT22;44236;48.098;11.582;2023-06-10T04:39:19;23.00;52.00
41644;DHT22;44236;48.098;11.582;2023-06-10T04:41:45;23.00;52.10
41644;DHT22;44236;48.098;11.582;2023-06-10T04:44:11;23.00;52.00
41644;DHT22;44236;48.098;11.582;2023-06-10T04:46:37;23.10;52.00
41644;DHT22;44236;48.098;11.582;2023-06-10T04:49:03;23.10;52.00
41644;DHT22;44236;48.098;11.582;2023-06-10T04:51:30;23.10;51.90
41644;DHT22;44236;48.098;11.582;2023-06-10T04:53:57;23.10;51.90
41644;DHT22;44236;48.098;11.582;2023-06-10T04:56:23;23.10;51.90
41644;DHT22;44236;48.098;11.582;2023-06-10T04:58:49;23.10;51.80
41644;DHT22;44236;48.098;11.582;2023-06-10T05:01:15;23.10;51.80
41644;DHT22;44236;48.098;11.582;2023-06-10T05:03:40;23.10;51.80
41644;DHT22;44236;48.098;11.582;2023-06-10T05:06:06;23.10;51.80
41644;DHT22;44236;48.098;11.582;2023-06-10T05:08:32;23.10;51.70
41644;DHT22;44236;48.098;11.582;2023-06-10T05:10:57;23.10;51.80
41644;DHT22;44236;48.098;11.582;2023-06-10T05:13:23;23.10;51.80
41644;DHT22;44236;48.098;11.582;2023-06-10T05:15:49;23.10;51.80
41644;DHT22;44236;48.098;11.582;2023-06-10T05:18:14;23.10;51.80
41644;DHT22;44236;48.098;11.582;2023-06-10T05:20:40;23.10;51.70
41644;DHT22;44236;48.098;11.582;2023-06-10T05:23:06;23.10;51.80
41644;DHT22;44236;48.098;11.582;2023-06-10T05:25:32;23.10;51.70
41644;DHT22;44236;48.098;11.582;2023-06-10T05:27:59;23.20;51.70
41644;DHT22;44236;48.098;11.582;2023-06-10T05:30:24;23.20;51.80
41644;DHT22;44236;48.098;11.582;2023-06-10T05:32:51;23.20;51.70
41644;DHT22;44236;48.098;11.582;2023-06-10T05:35:18;23.20;51.70
41644;DHT22;44236;48.098;11.582;2023-06-10T05:37:44;23.20;51.80
41644;DHT22;44236;48.098;11.582;2023-06-10T05:40:10;23.20;51.70
41644;DHT22;44236;48.098;11.582;2023-06-10T05:42:36;23.20;51.60
41644;DHT22;44236;48.098;11.582;2023-06-10T05:45:02;23.20;51.50
41644;DHT22;44236;48.098;11.582;2023-06-10T05:47:28;23.20;51.40
41644;DHT22;44236;48.098;11.582;2023-06-10T05:49:54;23.20;51.50
41644;DHT22;44236;48.098;11.582;2023-06-10T05:52:19;23.20;51.40
41644;DHT22;44236;48.098;11.582;2023-06-10T05:54:46;23.20;51.30
41644;DHT22;44236;48.098;11.582;2023-06-10T05:57:12;23.20;50.90
41644;DHT22;44236;48.098;11.582;2023-06-10T05:59:37;23.20;51.10
41644;DHT22;44236;48.098;11.582;2023-06-10T06:02:03;23.20;51.10
41644;DHT22;44236;48.098;11.582;2023-06-10T06:04:29;23.20;51.10
41644;DHT22;44236;48.098;11.582;2023-06-10T06:06:54;23.20;51.10
41644;DHT22;44236;48.098;11.582;2023-06-10T06:09:20;23.20;51.50
41644;DHT22;44236;48.098;11.582;2023-06-10T06:11:46;23.30;51.00
41644;DHT22;44236;48.098;11.582;2023-06-10T06:14:11;23.20;51.00
41644;DHT22;44236;48.098;11.582;2023-06-10T06:16:37;23.30;51.00
41644;DHT22;44236;48.098;11.582;2023-06-10T06:19:02;23.30;51.00
41644;DHT22;44236;48.098;11.582;2023-06-10T06:21:28;23.30;51.10
41644;DHT22;44236;48.098;11.582;2023-06-10T06:23:53;23.30;50.80
41644;DHT22;44236;48.098;11.582;2023-06-10T06:26:19;23.30;51.00
41644;DHT22;44236;48.098;11.582;2023-06-10T06:28:46;23.30;51.00
41644;DHT22;44236;48.098;11.582;2023-06-10T06:31:11;23.30;51.00
41644;DHT22;44236;48.098;11.582;2023-06-10T06:33:37;23.30;51.00
41644;DHT22;44236;48.098;11.582;2023-06-10T06:36:02;23.60;51.20
41644;DHT22;44236;48.098;11.582;2023-06-10T06:38:28;23.30;51.20
41644;DHT22;44236;48.098;11.582;2023-06-10T06:40:54;23.30;51.00
41644;DHT22;44236;48.098;11.582;2023-06-10T06:43:19;23.30;51.00
41644;DHT22;44236;48.098;11.582;2023-06-10T06:45:45;23.30;51.00
41644;DHT22;44236;48.098;11.582;2023-06-10T06:48:11;23.30;51.00
41644;DHT22;44236;48.098;11.582;2023-06-10T06:50:37;23.30;51.20
41644;DHT22;44236;48.098;11.582;2023-06-10T06:53:04;23.30;51.10
41644;DHT22;44236;48.098;11.582;2023-06-10T06:55:30;23.30;51.00
41644;DHT22;44236;48.098;11.582;2023-06-10T06:57:55;23.30;51.10
41644;DHT22;44236;48.098;11.582;2023-06-10T07:00:21;23.30;51.20
41644;DHT22;44236;48.098;11.582;2023-06-10T07:02:47;23.30;51.20
41644;DHT22;44236;48.098;11.582;2023-06-10T07:05:13;23.30;51.10
41644;DHT22;44236;48.098;11.582;2023-06-10T07:07:39;23.30;51.20
41644;DHT22;44236;48.098;11.582;2023-06-10T07:10:05;23.30;51.10
41644;DHT22;44236;48.098;11.582;2023-06-10T07:12:30;23.30;51.10
41644;DHT22;44236;48.098;11.582;2023-06-10T07:14:56;23.30;51.20
41644;DHT22;44236;48.098;11.582;2023-06-10T07:17:22;23.30;51.30
41644;DHT22;44236;48.098;11.582;2023-06-10T07:19:47;23.40;51.30
41644;DHT22;44236;48.098;11.582;2023-06-10T07:22:14;23.40;51.20
41644;DHT22;44236;48.098;11.582;2023-06-10T07:24:40;23.30;51.10
41644;DHT22;44236;48.098;11.582;2023-06-10T07:27:06;23.40;51.30
41644;DHT22;44236;48.098;11.582;2023-06-10T07:29:32;23.40;51.30
41644;DHT22;44236;48.098;11.582;2023-06-10T07:31:58;23.40;51.20
41644;DHT22;44236;48.098;11.582;2023-06-10T07:34:23;23.40;51.20
41644;DHT22;44236;48.098;11.582;2023-06-10T07:36:49;23.40;51.30
41644;DHT22;44236;48.098;11.582;2023-06-10T07:39:15;23.40;51.20
41644;DHT22;44236;48.098;11.582;2023-06-10T07:41:40;23.40;51.40
41644;DHT22;44236;48.098;11.582;2023-06-10T07:44:06;23.40;51.40
41644;DHT22;44236;48.098;11.582;2023-06-10T07:46:32;23.40;51.40
41644;DHT22;44236;48.098;11.582;2023-06-10T07:48:57;23.40;51.50
41644;DHT22;44236;48.098;11.582;2023-06-10T07:51:23;23.40;51.50
41644;DHT22;44236;48.098;11.582;2023-06-10T07:53:48;23.40;51.40
41644;DHT22;44236;48.098;11.582;2023-06-10T07:56:14;23.40;51.40
41644;DHT22;44236;48.098;11.582;2023-06-10T07:58:40;23.40;51.50
41644;DHT22;44236;48.098;11.582;2023-06-10T08:01:05;23.40;51.60
41644;DHT22;44236;48.098;11.582;2023-06-10T08:03:31;23.50;51.60
41644;DHT22;44236;48.098;11.582;2023-06-10T08:05:56;23.50;51.50
41644;DHT22;44236;48.098;11.582;2023-06-10T08:08:22;23.50;51.50
41644;DHT22;44236;48.098;11.582;2023-06-10T08:10:48;23.50;51.40
41644;DHT22;44236;48.098;11.582;2023-06-10T08:13:14;23.50;51.40
41644;DHT22;44236;48.098;11.582;2023-06-10T08:15:40;23.50;51.50
41644;DHT22;44236;48.098;11.582;2023-06-10T08:18:06;23.50;51.50
41644;DHT22;44236;48.098;11.582;2023-06-10T08:20:31;23.50;51.60
41644;DHT22;44236;48.098;11.582;2023-06-10T08:22:57;23.50;51.60
41644;DHT22;44236;48.098;11.582;2023-06-10T08:25:23;23.50;51.70
41644;DHT22;44236;48.098;11.582;2023-06-10T08:27:48;23.50;51.70
41644;DHT22;44236;48.098;11.582;2023-06-10T08:30:16;23.50;51.70
41644;DHT22;44236;48.098;11.582;2023-06-10T08:32:42;23.50;51.70
41644;DHT22;44236;48.098;11.582;2023-06-10T08:35:07;23.50;51.90
41644;DHT22;44236;48.098;11.582;2023-06-10T08:37:33;23.50;51.70
41644;DHT22;44236;48.098;11.582;2023-06-10T08:39:59;23.50;51.90
41644;DHT22;44236;48.098;11.582;2023-06-10T08:42:34;23.50;51.90
41644;DHT22;44236;48.098;11.582;2023-06-10T08:45:02;23.50;52.00
41644;DHT22;44236;48.098;11.582;2023-06-10T08:47:29;23.50;51.90
41644;DHT22;44236;48.098;11.582;2023-06-10T08:49:57;23.50;52.00
41644;DHT22;44236;48.098;11.582;2023-06-10T08:52:33;23.50;52.10
41644;DHT22;44236;48.098;11.582;2023-06-10T08:57:34;23.50;52.10
41644;DHT22;44236;48.098;11.582;2023-06-10T09:00:01;23.50;52.10
41644;DHT22;44236;48.098;11.582;2023-06-10T09:02:28;23.50;52.20
41644;DHT22;44236;48.098;11.582;2023-06-10T09:04:56;23.60;52.00
41644;DHT22;44236;48.098;11.582;2023-06-10T09:07:22;23.60;52.20
41644;DHT22;44236;48.098;11.582;2023-06-10T09:09:49;23.60;52.10
41644;DHT22;44236;48.098;11.582;2023-06-10T09:12:15;23.50;52.30
41644;DHT22;44236;48.098;11.582;2023-06-10T09:14:42;23.60;52.40
41644;DHT22;44236;48.098;11.582;2023-06-10T09:17:07;23.60;52.40
41644;DHT22;44236;48.098;11.582;2023-06-10T09:19:33;23.60;52.40
41644;DHT22;44236;48.098;11.582;2023-06-10T09:22:00;23.60;52.20
41644;DHT22;44236;48.098;11.582;2023-06-10T09:24:26;23.60;52.30
41644;DHT22;44236;48.098;11.582;2023-06-10T09:27:06;23.60;52.40
41644;DHT22;44236;48.098;11.582;2023-06-10T09:29:52;23.60;52.30
41644;DHT22;44236;48.098;11.582;2023-06-10T09:32:19;23.50;52.30
41644;DHT22;44236;48.098;11.582;2023-06-10T09:34:46;23.60;52.50
41644;DHT22;44236;48.098;11.582;2023-06-10T09:37:12;23.60;52.40
41644;DHT22;44236;48.098;11.582;2023-06-10T09:39:39;23.60;52.50
41644;DHT22;44236;48.098;11.582;2023-06-10T09:42:18;23.60;52.50
41644;DHT22;44236;48.098;11.582;2023-06-10T09:44:52;23.60;52.50
41644;DHT22;44236;48.098;11.582;2023-06-10T09:47:22;23.60;52.50
41644;DHT22;44236;48.098;11.582;2023-06-10T09:49:49;23.60;52.60
41644;DHT22;44236;48.098;11.582;2023-06-10T09:52:21;23.60;52.60
41644;DHT22;44236;48.098;11.582;2023-06-10T09:54:48;23.60;52.60
41644;DHT22;44236;48.098;11.582;2023-06-10T09:57:13;23.60;52.40
41644;DHT22;44236;48.098;11.582;2023-06-10T09:59:40;23.60;52.30
41644;DHT22;44236;48.098;11.582;2023-06-10T10:02:06;23.60;52.40
41644;DHT22;44236;48.098;11.582;2023-06-10T10:04:35;23.60;52.60
41644;DHT22;44236;48.098;11.582;2023-06-10T10:07:01;23.60;52.70
41644;DHT22;44236;48.098;11.582;2023-06-10T10:09:26;23.60;52.70
41644;DHT22;44236;48.098;11.582;2023-06-10T10:11:53;23.70;52.80
41644;DHT22;44236;48.098;11.582;2023-06-10T10:14:21;23.60;52.60
41644;DHT22;44236;48.098;11.582;2023-06-10T10:16:48;23.70;52.80
41644;DHT22;44236;48.098;11.582;2023-06-10T10:19:20;23.70;52.80
41644;DHT22;44236;48.098;11.582;2023-06-10T10:22:03;23.70;52.80
41644;DHT22;44236;48.098;11.582;2023-06-10T10:24:34;23.70;52.70
41644;DHT22;44236;48.098;11.582;2023-06-10T10:27:06;23.70;52.70
41644;DHT22;44236;48.098;11.582;2023-06-10T10:29:39;23.60;52.70
41644;DHT22;44236;48.098;11.582;2023-06-10T10:32:07;23.70;52.80
41644;DHT22;44236;48.098;11.582;2023-06-10T10:34:39;23.70;52.90
41644;DHT22;44236;48.098;11.582;2023-06-10T10:37:08;23.70;52.90
41644;DHT22;44236;48.098;11.582;2023-06-10T10:39:35;23.70;52.80
41644;DHT22;44236;48.098;11.582;2023-06-10T10:42:02;23.70;52.80
41644;DHT22;44236;48.098;11.582;2023-06-10T10:44:29;23.70;52.90
41644;DHT22;44236;48.098;11.582;2023-06-10T10:46:56;23.70;52.90
41644;DHT22;44236;48.098;11.582;2023-06-10T10:49:22;23.70;52.80
41644;DHT22;44236;48.098;11.582;2023-06-10T10:52:01;23.70;52.90
41644;DHT22;44236;48.098;11.582;2023-06-10T10:54:36;23.70;53.00
41644;DHT22;44236;48.098;11.582;2023-06-10T10:57:17;23.70;52.90
41644;DHT22;44236;48.098;11.582;2023-06-10T10:59:55;23.70;52.80
41644;DHT22;44236;48.098;11.582;2023-06-10T11:02:41;23.70;52.90
41644;DHT22;44236;48.098;11.582;2023-06-10T11:05:12;23.80;53.00
41644;DHT22;44236;48.098;11.582;2023-06-10T11:07:39;23.80;53.10
41644;DHT22;44236;48.098;11.582;2023-06-10T11:12:53;23.70;53.00
41644;DHT22;44236;48.098;11.582;2023-06-10T11:15:27;23.70;53.10
41644;DHT22;44236;48.098;11.582;2023-06-10T11:28:40;23.80;53.20
41644;DHT22;44236;48.098;11.582;2023-06-10T11:31:25;23.80;53.20
41644;DHT22;44236;48.098;11.582;2023-06-10T11:33:55;23.80;53.20
41644;DHT22;44236;48.098;11.582;2023-06-10T11:36:22;23.80;53.20
41644;DHT22;44236;48.098;11.582;2023-06-10T11:38:48;23.80;53.20
41644;DHT22;44236;48.098;11.582;2023-06-10T11:41:15;23.80;53.30
41644;DHT22;44236;48.098;11.582;2023-06-10T11:43:43;23.80;53.30
41644;DHT22;44236;48.098;11.582;2023-06-10T11:46:10;23.90;53.30
41644;DHT22;44236;48.098;11.582;2023-06-10T11:48:35;23.90;53.30
41644;DHT22;44236;48.098;11.582;2023-06-10T11:51:05;23.90;53.30
41644;DHT22;44236;48.098;11.582;2023-06-10T11:53:31;23.90;53.40
41644;DHT22;44236;48.098;11.582;2023-06-10T11:55:56;23.90;53.30
41644;DHT22;44236;48.098;11.582;2023-06-10T11:58:22;23.90;53.30
41644;DHT22;44236;48.098;11.582;2023-06-10T12:00:55;23.90;53.30
41644;DHT22;44236;48.098;11.582;2023-06-10T12:03:24;23.90;53.30
41644;DHT22;44236;48.098;11.582;2023-06-10T12:06:02;23.90;53.40
41644;DHT22;44236;48.098;11.582;2023-06-10T12:08:28;23.90;53.40
41644;DHT22;44236;48.098;11.582;2023-06-10T12:10:55;24.00;53.40
41644;DHT22;44236;48.098;11.582;2023-06-10T12:13:21;23.90;53.40
41644;DHT22;44236;48.098;11.582;2023-06-10T12:15:47;23.90;53.40
41644;DHT22;44236;48.098;11.582;2023-06-10T12:18:21;24.00;53.40
41644;DHT22;44236;48.098;11.582;2023-06-10T12:20:46;24.00;53.30
41644;DHT22;44236;48.098;11.582;2023-06-10T12:23:14;23.90;53.30
41644;DHT22;44236;48.098;11.582;2023-06-10T12:25:50;24.00;53.40
41644;DHT22;44236;48.098;11.582;2023-06-10T12:28:18;24.00;53.30
41644;DHT22;44236;48.098;11.582;2023-06-10T12:30:46;24.00;53.40
41644;DHT22;44236;48.098;11.582;2023-06-10T12:33:21;24.00;53.40
41644;DHT22;44236;48.098;11.582;2023-06-10T12:35:51;24.00;53.30
41644;DHT22;44236;48.098;11.582;2023-06-10T12:38:24;24.00;53.40
41644;DHT22;44236;48.098;11.582;2023-06-10T12:40:52;24.00;53.30
41644;DHT22;44236;48.098;11.582;2023-06-10T12:43:22;24.00;53.30
41644;DHT22;44236;48.098;11.582;2023-06-10T12:45:47;24.00;53.30
41644;DHT22;44236;48.098;11.582;2023-06-10T12:50:52;24.00;53.30
41644;DHT22;44236;48.098;11.582;2023-06-10T12:53:18;24.00;53.30
41644;DHT22;44236;48.098;11.582;2023-06-10T12:55:45;24.00;53.30
41644;DHT22;44236;48.098;11.582;2023-06-10T12:58:11;24.00;53.30
41644;DHT22;44236;48.098;11.582;2023-06-10T13:00:37;24.00;53.40
41644;DHT22;44236;48.098;11.582;2023-06-10T13:03:03;24.00;53.30
41644;DHT22;44236;48.098;11.582;2023-06-10T13:05:31;24.00;53.40
41644;DHT22;44236;48.098;11.582;2023-06-10T13:07:58;24.00;53.40
41644;DHT22;44236;48.098;11.582;2023-06-10T13:10:23;24.00;53.40
41644;DHT22;44236;48.098;11.582;2023-06-10T13:12:50;24.10;53.50
41644;DHT22;44236;48.098;11.582;2023-06-10T13:15:16;24.00;53.40
41644;DHT22;44236;48.098;11.582;2023-06-10T13:17:46;24.00;53.40
41644;DHT22;44236;48.098;11.582;2023-06-10T13:20:15;24.00;53.40
41644;DHT22;44236;48.098;11.582;2023-06-10T13:22:41;24.00;53.40
41644;DHT22;44236;48.098;11.582;2023-06-10T13:25:07;24.10;53.40
41644;DHT22;44236;48.098;11.582;2023-06-10T13:27:34;24.00;53.40
41644;DHT22;44236;48.098;11.582;2023-06-10T13:30:00;24.10;53.50
41644;DHT22;44236;48.098;11.582;2023-06-10T13:32:26;24.00;53.40
41644;DHT22;44236;48.098;11.582;2023-06-10T13:34:51;24.00;53.40
41644;DHT22;44236;48.098;11.582;2023-06-10T13:37:18;24.10;53.50
41644;DHT22;44236;48.098;11.582;2023-06-10T13:39:45;24.10;53.40
41644;DHT22;44236;48.098;11.582;2023-06-10T13:42:14;24.10;53.50
41644;DHT22;44236;48.098;11.582;2023-06-10T13:44:40;24.10;53.50
41644;DHT22;44236;48.098;11.582;2023-06-10T13:47:06;24.10;53.40
41644;DHT22;44236;48.098;11.582;2023-06-10T13:49:32;24.10;53.50
41644;DHT22;44236;48.098;11.582;2023-06-10T13:51:57;24.10;53.50
41644;DHT22;44236;48.098;11.582;2023-06-10T13:54:23;24.10;53.50
41644;DHT22;44236;48.098;11.582;2023-06-10T13:56:49;24.10;53.50
41644;DHT22;44236;48.098;11.582;2023-06-10T13:59:14;24.10;53.50
41644;DHT22;44236;48.098;11.582;2023-06-10T14:01:40;24.10;53.50
41644;DHT22;44236;48.098;11.582;2023-06-10T14:04:06;24.10;53.50
41644;DHT22;44236;48.098;11.582;2023-06-10T14:06:33;24.10;53.50
41644;DHT22;44236;48.098;11.582;2023-06-10T14:08:59;24.10;53.50
41644;DHT22;44236;48.098;11.582;2023-06-10T14:15:06;24.10;53.70
41644;DHT22;44236;48.098;11.582;2023-06-10T14:17:32;24.10;53.50
41644;DHT22;44236;48.098;11.582;2023-06-10T14:19:57;24.10;53.60
41644;DHT22;44236;48.098;11.582;2023-06-10T14:22:23;24.10;53.60
41644;DHT22;44236;48.098;11.582;2023-06-10T14:24:49;24.20;53.60
41644;DHT22;44236;48.098;11.582;2023-06-10T14:27:14;24.10;53.60
41644;DHT22;44236;48.098;11.582;2023-06-10T14:29:40;24.10;53.60
41644;DHT22;44236;48.098;11.582;2023-06-10T14:32:06;24.10;53.50
41644;DHT22;44236;48.098;11.582;2023-06-10T14:34:32;24.10;53.60
41644;DHT22;44236;48.098;11.582;2023-06-10T14:36:59;24.10;53.60
41644;DHT22;44236;48.098;11.582;2023-06-10T14:39:25;24.10;53.60
41644;DHT22;44236;48.098;11.582;2023-06-10T14:41:51;24.10;53.60
41644;DHT22;44236;48.098;11.582;2023-06-10T14:44:18;24.20;53.80
41644;DHT22;44236;48.098;11.582;2023-06-10T14:46:44;24.10;53.60
41644;DHT22;44236;48.098;11.582;2023-06-10T14:49:09;24.10;53.60
41644;DHT22;44236;48.098;11.582;2023-06-10T14:51:35;24.20;53.80
41644;DHT22;44236;48.098;11.582;2023-06-10T14:54:01;24.10;53.70
41644;DHT22;44236;48.098;11.582;2023-06-10T14:56:27;24.20;53.80
41644;DHT22;44236;48.098;11.582;2023-06-10T14:58:52;24.20;53.70
41644;DHT22;44236;48.098;11.582;2023-06-10T15:01:18;24.20;53.70
41644;DHT22;44236;48.098;11.582;2023-06-10T15:03:44;24.20;53.70
41644;DHT22;44236;48.098;11.582;2023-06-10T15:06:09;24.20;53.70
41644;DHT22;44236;48.098;11.582;2023-06-10T15:08:35;24.20;53.70
41644;DHT22;44236;48.098;11.582;2023-06-10T15:11:01;24.20;53.80
41644;DHT22;44236;48.098;11.582;2023-06-10T15:13:27;24.20;53.70
41644;DHT22;44236;48.098;11.582;2023-06-10T15:15:53;24.20;53.70
41644;DHT22;44236;48.098;11.582;2023-06-10T15:18:19;24.20;53.80
41644;DHT22;44236;48.098;11.582;2023-06-10T15:20:44;24.20;53.70
41644;DHT22;44236;48.098;11.582;2023-06-10T15:23:10;24.20;53.70
41644;DHT22;44236;48.098;11.582;2023-06-10T15:25:36;24.20;53.70
41644;DHT22;44236;48.098;11.582;2023-06-10T15:28:01;24.20;53.80
41644;DHT22;44236;48.098;11.582;2023-06-10T15:30:27;24.20;53.80
41644;DHT22;44236;48.098;11.582;2023-06-10T15:32:53;24.20;53.70
41644;DHT22;44236;48.098;11.582;2023-06-10T15:35:18;24.20;53.70
41644;DHT22;44236;48.098;11.582;2023-06-10T15:37:44;24.20;53.70
41644;DHT22;44236;48.098;11.582;2023-06-10T15:40:10;24.20;54.00
41644;DHT22;44236;48.098;11.582;2023-06-10T15:42:36;24.20;53.90